sensor_id;sensor_type;location;lat;lon;timestamp;P1;durP1;ratioP1;P2;durP2;ratioP2
65597;SDS011;52267;51.984;20.956;2023-03-14T00:00:12;9.50;;;6.10;;
65597;SDS011;52267;51.984;20.956;2023-03-14T00:03:00;10.50;;;6.00;;
65597;SDS011;52267;51.984;20.956;2023-03-14T00:05:27;9.90;;;5.90;;
65597;SDS011;52267;51.984;20.956;2023-03-14T00:07:54;13.60;;;7.40;;
65597;SDS011;52267;51.984;20.956;2023-03-14T00:10:22;11.80;;;6.10;;
65597;SDS011;52267;51.984;20.956;2023-03-14T00:12:49;11.70;;;7.00;;
65597;SDS011;52267;51.984;20.956;2023-03-14T00:15:16;12.40;;;7.20;;
65597;SDS011;52267;51.984;20.956;2023-03-14T00:17:43;10.60;;;5.90;;
65597;SDS011;52267;51.984;20.956;2023-03-14T00:20:11;16.80;;;7.20;;
65597;SDS011;52267;51.984;20.956;2023-03-14T00:22:39;13.20;;;7.00;;
65597;SDS011;52267;51.984;20.956;2023-03-14T00:25:09;8.20;;;6.40;;
65597;SDS011;52267;51.984;20.956;2023-03-14T00:27:37;11.60;;;6.50;;
65597;SDS011;52267;51.984;20.956;2023-03-14T00:30:05;11.70;;;6.20;;
65597;SDS011;52267;51.984;20.956;2023-03-14T00:32:34;9.90;;;6.10;;
65597;SDS011;52267;51.984;20.956;2023-03-14T00:35:02;13.30;;;7.50;;
65597;SDS011;52267;51.984;20.956;2023-03-14T00:37:30;11.50;;;6.30;;
65597;SDS011;52267;51.984;20.956;2023-03-14T00:39:57;10.10;;;5.60;;
65597;SDS011;52267;51.984;20.956;2023-03-14T00:42:25;12.20;;;6.90;;
65597;SDS011;52267;51.984;20.956;2023-03-14T00:44:52;11.40;;;7.20;;
65597;SDS011;52267;51.984;20.956;2023-03-14T00:47:19;10.90;;;5.90;;
65597;SDS011;52267;51.984;20.956;2023-03-14T00:49:48;10.10;;;6.70;;
65597;SDS011;52267;51.984;20.956;2023-03-14T00:52:15;13.30;;;6.90;;
65597;SDS011;52267;51.984;20.956;2023-03-14T00:54:42;9.10;;;6.20;;
65597;SDS011;52267;51.984;20.956;2023-03-14T00:57:09;10.40;;;6.20;;
65597;SDS011;52267;51.984;20.956;2023-03-14T00:59:36;13.00;;;6.50;;
65597;SDS011;52267;51.984;20.956;2023-03-14T01:02:03;11.20;;;5.90;;
65597;SDS011;52267;51.984;20.956;2023-03-14T01:04:30;11.80;;;6.00;;
65597;SDS011;52267;51.984;20.956;2023-03-14T01:06:57;8.10;;;4.60;;
65597;SDS011;52267;51.984;20.956;2023-03-14T01:09:25;9.60;;;4.90;;
65597;SDS011;52267;51.984;20.956;2023-03-14T01:11:52;7.90;;;4.90;;
65597;SDS011;52267;51.984;20.956;2023-03-14T01:14:19;11.60;;;5.70;;
65597;SDS011;52267;51.984;20.956;2023-03-14T01:16:46;8.70;;;5.20;;
65597;SDS011;52267;51.984;20.956;2023-03-14T01:19:13;11.00;;;6.70;;
65597;SDS011;52267;51.984;20.956;2023-03-14T01:21:40;13.10;;;6.30;;
65597;SDS011;52267;51.984;20.956;2023-03-14T01:24:10;10.80;;;6.30;;
65597;SDS011;52267;51.984;20.956;2023-03-14T01:26:37;10.40;;;5.60;;
65597;SDS011;52267;51.984;20.956;2023-03-14T01:29:04;12.80;;;6.30;;
65597;SDS011;52267;51.984;20.956;2023-03-14T01:31:31;8.90;;;5.20;;
65597;SDS011;52267;51.984;20.956;2023-03-14T01:33:58;9.00;;;5.10;;
65597;SDS011;52267;51.984;20.956;2023-03-14T01:36:26;11.50;;;5.70;;
65597;SDS011;52267;51.984;20.956;2023-03-14T01:38:53;11.30;;;6.90;;
65597;SDS011;52267;51.984;20.956;2023-03-14T01:41:22;11.80;;;7.10;;
65597;SDS011;52267;51.984;20.956;2023-03-14T01:43:51;10.70;;;5.40;;
65597;SDS011;52267;51.984;20.956;2023-03-14T01:46:48;11.60;;;5.80;;
65597;SDS011;52267;51.984;20.956;2023-03-14T01:49:34;9.70;;;6.00;;
65597;SDS011;52267;51.984;20.956;2023-03-14T01:52:10;8.60;;;4.40;;
65597;SDS011;52267;51.984;20.956;2023-03-14T01:54:45;11.90;;;5.90;;
65597;SDS011;52267;51.984;20.956;2023-03-14T01:57:18;10.20;;;5.60;;
65597;SDS011;52267;51.984;20.956;2023-03-14T01:59:55;8.80;;;6.20;;
65597;SDS011;52267;51.984;20.956;2023-03-14T02:02:26;8.90;;;4.30;;
65597;SDS011;52267;51.984;20.956;2023-03-14T02:05:12;12.40;;;5.70;;
65597;SDS011;52267;51.984;20.956;2023-03-14T02:07:52;10.20;;;5.20;;
65597;SDS011;52267;51.984;20.956;2023-03-14T02:10:22;9.00;;;4.80;;
65597;SDS011;52267;51.984;20.956;2023-03-14T02:15:20;9.40;;;4.50;;
65597;SDS011;52267;51.984;20.956;2023-03-14T02:17:47;7.30;;;3.70;;
65597;SDS011;52267;51.984;20.956;2023-03-14T02:23:41;10.80;;;5.40;;
65597;SDS011;52267;51.984;20.956;2023-03-14T02:26:42;9.50;;;5.20;;
65597;SDS011;52267;51.984;20.956;2023-03-14T02:29:28;7.50;;;5.10;;
65597;SDS011;52267;51.984;20.956;2023-03-14T02:31:56;10.30;;;5.10;;
65597;SDS011;52267;51.984;20.956;2023-03-14T02:34:23;7.90;;;4.20;;
65597;SDS011;52267;51.984;20.956;2023-03-14T02:36:52;6.10;;;3.70;;
65597;SDS011;52267;51.984;20.956;2023-03-14T02:39:35;8.00;;;4.70;;
65597;SDS011;52267;51.984;20.956;2023-03-14T02:42:07;9.60;;;6.20;;
65597;SDS011;52267;51.984;20.956;2023-03-14T02:44:34;10.30;;;6.00;;
65597;SDS011;52267;51.984;20.956;2023-03-14T02:47:03;7.70;;;4.40;;
65597;SDS011;52267;51.984;20.956;2023-03-14T02:49:31;8.90;;;5.20;;
65597;SDS011;52267;51.984;20.956;2023-03-14T02:51:59;6.90;;;4.40;;
65597;SDS011;52267;51.984;20.956;2023-03-14T02:54:26;10.20;;;6.20;;
65597;SDS011;52267;51.984;20.956;2023-03-14T02:56:54;6.60;;;3.90;;
65597;SDS011;52267;51.984;20.956;2023-03-14T02:59:21;12.00;;;6.20;;
65597;SDS011;52267;51.984;20.956;2023-03-14T03:01:48;6.50;;;3.70;;
65597;SDS011;52267;51.984;20.956;2023-03-14T03:04:15;9.50;;;5.10;;
65597;SDS011;52267;51.984;20.956;2023-03-14T03:06:42;7.10;;;5.20;;
65597;SDS011;52267;51.984;20.956;2023-03-14T03:09:09;8.40;;;4.80;;
65597;SDS011;52267;51.984;20.956;2023-03-14T03:11:36;7.90;;;4.50;;
65597;SDS011;52267;51.984;20.956;2023-03-14T03:14:03;10.20;;;5.60;;
65597;SDS011;52267;51.984;20.956;2023-03-14T03:16:30;7.80;;;4.70;;
65597;SDS011;52267;51.984;20.956;2023-03-14T03:18:57;6.50;;;4.50;;
65597;SDS011;52267;51.984;20.956;2023-03-14T03:21:27;9.60;;;5.30;;
65597;SDS011;52267;51.984;20.956;2023-03-14T03:23:54;7.40;;;4.00;;
65597;SDS011;52267;51.984;20.956;2023-03-14T03:26:21;9.20;;;5.80;;
65597;SDS011;52267;51.984;20.956;2023-03-14T03:28:50;8.80;;;4.70;;
65597;SDS011;52267;51.984;20.956;2023-03-14T03:31:18;6.40;;;3.70;;
65597;SDS011;52267;51.984;20.956;2023-03-14T03:33:45;8.00;;;4.80;;
65597;SDS011;52267;51.984;20.956;2023-03-14T03:36:12;8.40;;;4.10;;
65597;SDS011;52267;51.984;20.956;2023-03-14T03:38:39;7.00;;;4.30;;
65597;SDS011;52267;51.984;20.956;2023-03-14T03:41:07;7.00;;;4.00;;
65597;SDS011;52267;51.984;20.956;2023-03-14T03:43:34;8.20;;;4.70;;
65597;SDS011;52267;51.984;20.956;2023-03-14T03:46:05;9.30;;;5.30;;
65597;SDS011;52267;51.984;20.956;2023-03-14T03:48:33;8.90;;;4.60;;
65597;SDS011;52267;51.984;20.956;2023-03-14T03:51:01;8.20;;;4.40;;
65597;SDS011;52267;51.984;20.956;2023-03-14T03:53:29;8.10;;;4.00;;
65597;SDS011;52267;51.984;20.956;2023-03-14T03:55:56;9.50;;;5.20;;
65597;SDS011;52267;51.984;20.956;2023-03-14T03:58:23;8.40;;;5.20;;
65597;SDS011;52267;51.984;20.956;2023-03-14T04:00:50;5.90;;;3.10;;
65597;SDS011;52267;51.984;20.956;2023-03-14T04:03:17;6.80;;;4.40;;
65597;SDS011;52267;51.984;20.956;2023-03-14T04:05:44;7.10;;;4.70;;
65597;SDS011;52267;51.984;20.956;2023-03-14T04:08:11;9.40;;;5.70;;
65597;SDS011;52267;51.984;20.956;2023-03-14T04:10:38;7.80;;;4.30;;
65597;SDS011;52267;51.984;20.956;2023-03-14T04:13:05;8.10;;;4.60;;
65597;SDS011;52267;51.984;20.956;2023-03-14T04:15:32;8.20;;;5.00;;
65597;SDS011;52267;51.984;20.956;2023-03-14T04:17:59;7.70;;;3.80;;
65597;SDS011;52267;51.984;20.956;2023-03-14T04:20:26;7.20;;;4.70;;
65597;SDS011;52267;51.984;20.956;2023-03-14T04:22:53;9.90;;;5.60;;
65597;SDS011;52267;51.984;20.956;2023-03-14T04:25:21;6.00;;;3.90;;
65597;SDS011;52267;51.984;20.956;2023-03-14T04:27:48;7.00;;;4.60;;
65597;SDS011;52267;51.984;20.956;2023-03-14T04:30:21;7.30;;;4.60;;
65597;SDS011;52267;51.984;20.956;2023-03-14T04:32:48;10.60;;;4.70;;
65597;SDS011;52267;51.984;20.956;2023-03-14T04:35:15;8.50;;;3.60;;
65597;SDS011;52267;51.984;20.956;2023-03-14T04:37:43;9.40;;;4.40;;
65597;SDS011;52267;51.984;20.956;2023-03-14T04:40:10;11.40;;;5.40;;
65597;SDS011;52267;51.984;20.956;2023-03-14T04:42:38;7.20;;;3.30;;
65597;SDS011;52267;51.984;20.956;2023-03-14T04:45:06;6.20;;;4.20;;
65597;SDS011;52267;51.984;20.956;2023-03-14T04:47:34;7.70;;;3.40;;
65597;SDS011;52267;51.984;20.956;2023-03-14T04:50:01;8.00;;;3.90;;
65597;SDS011;52267;51.984;20.956;2023-03-14T04:52:28;9.80;;;4.10;;
65597;SDS011;52267;51.984;20.956;2023-03-14T04:54:55;6.40;;;3.50;;
65597;SDS011;52267;51.984;20.956;2023-03-14T04:57:22;6.70;;;3.70;;
65597;SDS011;52267;51.984;20.956;2023-03-14T04:59:49;5.10;;;3.40;;
65597;SDS011;52267;51.984;20.956;2023-03-14T05:02:16;6.90;;;4.80;;
65597;SDS011;52267;51.984;20.956;2023-03-14T05:04:43;8.90;;;4.50;;
65597;SDS011;52267;51.984;20.956;2023-03-14T05:07:10;7.20;;;3.90;;
65597;SDS011;52267;51.984;20.956;2023-03-14T05:09:37;6.00;;;4.10;;
65597;SDS011;52267;51.984;20.956;2023-03-14T05:12:05;10.50;;;5.00;;
65597;SDS011;52267;51.984;20.956;2023-03-14T05:14:32;10.50;;;5.00;;
65597;SDS011;52267;51.984;20.956;2023-03-14T05:16:59;10.70;;;4.60;;
65597;SDS011;52267;51.984;20.956;2023-03-14T05:19:26;8.50;;;4.80;;
65597;SDS011;52267;51.984;20.956;2023-03-14T05:21:53;7.70;;;4.30;;
65597;SDS011;52267;51.984;20.956;2023-03-14T05:24:20;10.00;;;5.40;;
65597;SDS011;52267;51.984;20.956;2023-03-14T05:26:47;7.00;;;4.10;;
65597;SDS011;52267;51.984;20.956;2023-03-14T05:29:14;11.10;;;5.10;;
65597;SDS011;52267;51.984;20.956;2023-03-14T05:31:41;6.70;;;2.80;;
65597;SDS011;52267;51.984;20.956;2023-03-14T05:34:08;6.30;;;3.70;;
65597;SDS011;52267;51.984;20.956;2023-03-14T05:36:35;9.10;;;4.70;;
65597;SDS011;52267;51.984;20.956;2023-03-14T05:39:03;7.40;;;4.10;;
65597;SDS011;52267;51.984;20.956;2023-03-14T05:41:30;6.10;;;3.80;;
65597;SDS011;52267;51.984;20.956;2023-03-14T05:43:57;7.20;;;4.10;;
65597;SDS011;52267;51.984;20.956;2023-03-14T05:46:24;6.30;;;3.50;;
65597;SDS011;52267;51.984;20.956;2023-03-14T05:48:51;5.20;;;3.50;;
65597;SDS011;52267;51.984;20.956;2023-03-14T05:51:18;9.00;;;4.00;;
65597;SDS011;52267;51.984;20.956;2023-03-14T05:53:45;9.40;;;5.50;;
65597;SDS011;52267;51.984;20.956;2023-03-14T05:56:12;7.20;;;4.10;;
65597;SDS011;52267;51.984;20.956;2023-03-14T05:58:39;6.70;;;3.70;;
65597;SDS011;52267;51.984;20.956;2023-03-14T06:01:07;7.20;;;4.60;;
65597;SDS011;52267;51.984;20.956;2023-03-14T06:03:34;9.60;;;4.90;;
65597;SDS011;52267;51.984;20.956;2023-03-14T06:06:01;6.50;;;4.00;;
65597;SDS011;52267;51.984;20.956;2023-03-14T06:08:28;8.00;;;4.80;;
65597;SDS011;52267;51.984;20.956;2023-03-14T06:10:56;8.10;;;4.10;;
65597;SDS011;52267;51.984;20.956;2023-03-14T06:13:24;6.50;;;4.20;;
65597;SDS011;52267;51.984;20.956;2023-03-14T06:15:51;9.90;;;6.40;;
65597;SDS011;52267;51.984;20.956;2023-03-14T06:18:18;6.40;;;3.90;;
65597;SDS011;52267;51.984;20.956;2023-03-14T06:20:45;8.00;;;4.10;;
65597;SDS011;52267;51.984;20.956;2023-03-14T06:23:12;9.30;;;4.30;;
65597;SDS011;52267;51.984;20.956;2023-03-14T06:25:39;7.30;;;3.50;;
65597;SDS011;52267;51.984;20.956;2023-03-14T06:28:06;7.00;;;4.40;;
65597;SDS011;52267;51.984;20.956;2023-03-14T06:30:33;8.10;;;5.40;;
65597;SDS011;52267;51.984;20.956;2023-03-14T06:33:00;8.40;;;5.80;;
65597;SDS011;52267;51.984;20.956;2023-03-14T06:35:27;8.60;;;5.80;;
65597;SDS011;52267;51.984;20.956;2023-03-14T06:37:54;6.60;;;3.70;;
65597;SDS011;52267;51.984;20.956;2023-03-14T06:40:21;8.30;;;4.90;;
65597;SDS011;52267;51.984;20.956;2023-03-14T06:42:49;7.90;;;5.10;;
65597;SDS011;52267;51.984;20.956;2023-03-14T06:45:16;7.20;;;5.00;;
65597;SDS011;52267;51.984;20.956;2023-03-14T06:47:43;8.60;;;5.00;;
65597;SDS011;52267;51.984;20.956;2023-03-14T06:50:10;9.80;;;5.20;;
65597;SDS011;52267;51.984;20.956;2023-03-14T06:52:37;8.40;;;4.80;;
65597;SDS011;52267;51.984;20.956;2023-03-14T06:55:08;8.50;;;4.60;;
65597;SDS011;52267;51.984;20.956;2023-03-14T06:57:35;8.90;;;5.30;;
65597;SDS011;52267;51.984;20.956;2023-03-14T07:00:04;8.00;;;4.70;;
65597;SDS011;52267;51.984;20.956;2023-03-14T07:02:31;6.60;;;4.20;;
65597;SDS011;52267;51.984;20.956;2023-03-14T07:04:59;6.80;;;3.50;;
65597;SDS011;52267;51.984;20.956;2023-03-14T07:07:27;5.70;;;3.60;;
65597;SDS011;52267;51.984;20.956;2023-03-14T07:09:55;6.90;;;4.80;;
65597;SDS011;52267;51.984;20.956;2023-03-14T07:12:23;6.30;;;3.80;;
65597;SDS011;52267;51.984;20.956;2023-03-14T07:14:50;6.80;;;4.40;;
65597;SDS011;52267;51.984;20.956;2023-03-14T07:17:17;6.80;;;4.30;;
65597;SDS011;52267;51.984;20.956;2023-03-14T07:19:44;6.80;;;3.80;;
65597;SDS011;52267;51.984;20.956;2023-03-14T07:22:11;5.90;;;3.60;;
65597;SDS011;52267;51.984;20.956;2023-03-14T07:24:38;6.10;;;4.30;;
65597;SDS011;52267;51.984;20.956;2023-03-14T07:27:05;6.50;;;4.30;;
65597;SDS011;52267;51.984;20.956;2023-03-14T07:29:32;8.00;;;4.50;;
65597;SDS011;52267;51.984;20.956;2023-03-14T07:31:59;6.20;;;3.70;;
65597;SDS011;52267;51.984;20.956;2023-03-14T07:34:27;8.10;;;4.70;;
65597;SDS011;52267;51.984;20.956;2023-03-14T07:36:54;6.40;;;4.00;;
65597;SDS011;52267;51.984;20.956;2023-03-14T07:39:21;7.30;;;4.30;;
65597;SDS011;52267;51.984;20.956;2023-03-14T07:41:48;5.80;;;3.60;;
65597;SDS011;52267;51.984;20.956;2023-03-14T07:44:15;6.30;;;3.90;;
65597;SDS011;52267;51.984;20.956;2023-03-14T07:46:42;7.30;;;4.10;;
65597;SDS011;52267;51.984;20.956;2023-03-14T07:49:09;7.70;;;4.60;;
65597;SDS011;52267;51.984;20.956;2023-03-14T07:51:36;7.80;;;4.20;;
65597;SDS011;52267;51.984;20.956;2023-03-14T07:54:03;5.10;;;3.20;;
65597;SDS011;52267;51.984;20.956;2023-03-14T07:56:30;6.10;;;3.70;;
65597;SDS011;52267;51.984;20.956;2023-03-14T07:58:57;6.20;;;4.10;;
65597;SDS011;52267;51.984;20.956;2023-03-14T08:01:24;7.10;;;4.00;;
65597;SDS011;52267;51.984;20.956;2023-03-14T08:03:51;7.60;;;4.10;;
65597;SDS011;52267;51.984;20.956;2023-03-14T08:06:19;7.00;;;4.60;;
65597;SDS011;52267;51.984;20.956;2023-03-14T08:08:46;7.70;;;4.60;;
65597;SDS011;52267;51.984;20.956;2023-03-14T08:11:13;8.20;;;4.50;;
65597;SDS011;52267;51.984;20.956;2023-03-14T08:13:40;9.80;;;5.00;;
65597;SDS011;52267;51.984;20.956;2023-03-14T08:16:07;6.00;;;3.60;;
65597;SDS011;52267;51.984;20.956;2023-03-14T08:18:35;7.70;;;4.50;;
65597;SDS011;52267;51.984;20.956;2023-03-14T08:21:02;5.60;;;3.50;;
65597;SDS011;52267;51.984;20.956;2023-03-14T08:23:29;7.10;;;3.70;;
65597;SDS011;52267;51.984;20.956;2023-03-14T08:25:56;9.80;;;4.80;;
65597;SDS011;52267;51.984;20.956;2023-03-14T08:28:23;8.10;;;4.20;;
65597;SDS011;52267;51.984;20.956;2023-03-14T08:30:50;6.90;;;4.60;;
65597;SDS011;52267;51.984;20.956;2023-03-14T08:33:17;7.00;;;4.20;;
65597;SDS011;52267;51.984;20.956;2023-03-14T08:35:44;6.10;;;4.20;;
65597;SDS011;52267;51.984;20.956;2023-03-14T08:38:12;6.20;;;3.80;;
65597;SDS011;52267;51.984;20.956;2023-03-14T08:40:39;8.00;;;3.60;;
65597;SDS011;52267;51.984;20.956;2023-03-14T08:43:06;8.50;;;4.10;;
65597;SDS011;52267;51.984;20.956;2023-03-14T08:45:33;5.70;;;3.50;;
65597;SDS011;52267;51.984;20.956;2023-03-14T08:48:00;7.30;;;3.90;;
65597;SDS011;52267;51.984;20.956;2023-03-14T08:50:27;7.70;;;4.90;;
65597;SDS011;52267;51.984;20.956;2023-03-14T08:52:54;7.00;;;3.80;;
65597;SDS011;52267;51.984;20.956;2023-03-14T08:55:21;9.20;;;5.40;;
65597;SDS011;52267;51.984;20.956;2023-03-14T08:57:48;6.00;;;3.20;;
65597;SDS011;52267;51.984;20.956;2023-03-14T09:00:16;9.00;;;4.10;;
65597;SDS011;52267;51.984;20.956;2023-03-14T09:02:43;5.70;;;3.70;;
65597;SDS011;52267;51.984;20.956;2023-03-14T09:05:11;7.00;;;3.40;;
65597;SDS011;52267;51.984;20.956;2023-03-14T09:07:39;7.40;;;3.90;;
65597;SDS011;52267;51.984;20.956;2023-03-14T09:10:07;6.40;;;3.90;;
65597;SDS011;52267;51.984;20.956;2023-03-14T09:12:35;6.60;;;4.00;;
65597;SDS011;52267;51.984;20.956;2023-03-14T09:15:03;6.10;;;3.60;;
65597;SDS011;52267;51.984;20.956;2023-03-14T09:17:30;6.70;;;4.30;;
65597;SDS011;52267;51.984;20.956;2023-03-14T09:19:57;8.50;;;3.50;;
65597;SDS011;52267;51.984;20.956;2023-03-14T09:22:24;7.80;;;4.60;;
65597;SDS011;52267;51.984;20.956;2023-03-14T09:24:52;7.20;;;4.40;;
65597;SDS011;52267;51.984;20.956;2023-03-14T09:27:19;8.60;;;4.50;;
65597;SDS011;52267;51.984;20.956;2023-03-14T09:29:46;7.40;;;4.40;;
65597;SDS011;52267;51.984;20.956;2023-03-14T09:32:13;6.50;;;4.70;;
65597;SDS011;52267;51.984;20.956;2023-03-14T09:34:40;6.40;;;4.30;;
65597;SDS011;52267;51.984;20.956;2023-03-14T09:37:07;11.90;;;6.90;;
65597;SDS011;52267;51.984;20.956;2023-03-14T09:39:35;10.10;;;5.60;;
65597;SDS011;52267;51.984;20.956;2023-03-14T09:42:05;8.40;;;5.30;;
65597;SDS011;52267;51.984;20.956;2023-03-14T09:44:37;7.70;;;3.90;;
65597;SDS011;52267;51.984;20.956;2023-03-14T09:47:16;6.80;;;4.30;;
65597;SDS011;52267;51.984;20.956;2023-03-14T09:49:46;10.40;;;5.90;;
65597;SDS011;52267;51.984;20.956;2023-03-14T09:52:23;6.50;;;3.70;;
65597;SDS011;52267;51.984;20.956;2023-03-14T09:54:58;9.20;;;4.70;;
65597;SDS011;52267;51.984;20.956;2023-03-14T09:57:27;8.10;;;4.50;;
65597;SDS011;52267;51.984;20.956;2023-03-14T09:59:58;7.30;;;4.60;;
65597;SDS011;52267;51.984;20.956;2023-03-14T10:02:42;4.90;;;3.00;;
65597;SDS011;52267;51.984;20.956;2023-03-14T10:05:19;6.80;;;4.30;;
65597;SDS011;52267;51.984;20.956;2023-03-14T10:07:48;8.20;;;5.50;;
65597;SDS011;52267;51.984;20.956;2023-03-14T10:10:21;9.20;;;4.00;;
65597;SDS011;52267;51.984;20.956;2023-03-14T10:13:05;8.40;;;4.10;;
65597;SDS011;52267;51.984;20.956;2023-03-14T10:18:31;5.40;;;2.90;;
65597;SDS011;52267;51.984;20.956;2023-03-14T10:21:04;7.90;;;4.00;;
65597;SDS011;52267;51.984;20.956;2023-03-14T10:23:44;6.60;;;3.30;;
65597;SDS011;52267;51.984;20.956;2023-03-14T10:26:14;6.10;;;3.40;;
65597;SDS011;52267;51.984;20.956;2023-03-14T10:28:48;5.70;;;4.00;;
65597;SDS011;52267;51.984;20.956;2023-03-14T10:31:18;5.50;;;3.40;;
65597;SDS011;52267;51.984;20.956;2023-03-14T10:34:20;8.00;;;3.60;;
65597;SDS011;52267;51.984;20.956;2023-03-14T10:37:04;6.90;;;4.70;;
65597;SDS011;52267;51.984;20.956;2023-03-14T10:39:50;7.30;;;3.90;;
65597;SDS011;52267;51.984;20.956;2023-03-14T10:42:25;5.70;;;3.20;;
65597;SDS011;52267;51.984;20.956;2023-03-14T10:45:04;6.00;;;3.90;;
65597;SDS011;52267;51.984;20.956;2023-03-14T10:47:34;6.80;;;3.50;;
65597;SDS011;52267;51.984;20.956;2023-03-14T10:50:24;7.70;;;3.80;;
65597;SDS011;52267;51.984;20.956;2023-03-14T10:52:53;9.40;;;4.80;;
65597;SDS011;52267;51.984;20.956;2023-03-14T10:55:23;7.60;;;4.40;;
65597;SDS011;52267;51.984;20.956;2023-03-14T10:57:52;6.80;;;3.90;;
65597;SDS011;52267;51.984;20.956;2023-03-14T11:00:22;7.40;;;4.10;;
65597;SDS011;52267;51.984;20.956;2023-03-14T11:05:43;9.60;;;3.70;;
65597;SDS011;52267;51.984;20.956;2023-03-14T11:08:33;6.10;;;4.00;;
65597;SDS011;52267;51.984;20.956;2023-03-14T11:11:20;6.00;;;3.20;;
65597;SDS011;52267;51.984;20.956;2023-03-14T11:16:54;6.80;;;3.80;;
65597;SDS011;52267;51.984;20.956;2023-03-14T11:19:46;7.30;;;3.60;;
65597;SDS011;52267;51.984;20.956;2023-03-14T11:22:36;7.70;;;4.70;;
65597;SDS011;52267;51.984;20.956;2023-03-14T11:25:14;7.20;;;3.90;;
65597;SDS011;52267;51.984;20.956;2023-03-14T11:31:33;8.70;;;5.20;;
65597;SDS011;52267;51.984;20.956;2023-03-14T11:36:42;6.90;;;4.70;;
65597;SDS011;52267;51.984;20.956;2023-03-14T11:39:15;7.80;;;4.10;;
65597;SDS011;52267;51.984;20.956;2023-03-14T11:41:49;9.40;;;4.10;;
65597;SDS011;52267;51.984;20.956;2023-03-14T11:44:21;7.30;;;3.90;;
65597;SDS011;52267;51.984;20.956;2023-03-14T11:47:34;8.00;;;5.30;;
65597;SDS011;52267;51.984;20.956;2023-03-14T11:50:19;10.30;;;5.60;;
65597;SDS011;52267;51.984;20.956;2023-03-14T11:53:01;7.40;;;3.90;;
65597;SDS011;52267;51.984;20.956;2023-03-14T11:55:33;9.30;;;4.80;;
65597;SDS011;52267;51.984;20.956;2023-03-14T11:58:12;10.20;;;5.90;;
65597;SDS011;52267;51.984;20.956;2023-03-14T12:00:41;8.00;;;4.60;;
65597;SDS011;52267;51.984;20.956;2023-03-14T12:03:34;9.10;;;5.50;;
65597;SDS011;52267;51.984;20.956;2023-03-14T12:06:13;8.30;;;5.30;;
65597;SDS011;52267;51.984;20.956;2023-03-14T12:08:58;8.50;;;4.70;;
65597;SDS011;52267;51.984;20.956;2023-03-14T12:14:23;8.30;;;5.20;;
65597;SDS011;52267;51.984;20.956;2023-03-14T12:17:07;8.00;;;4.60;;
65597;SDS011;52267;51.984;20.956;2023-03-14T12:19:53;8.40;;;4.90;;
65597;SDS011;52267;51.984;20.956;2023-03-14T12:22:30;10.40;;;5.50;;
65597;SDS011;52267;51.984;20.956;2023-03-14T12:25:13;7.80;;;5.20;;
65597;SDS011;52267;51.984;20.956;2023-03-14T12:30:29;8.80;;;5.20;;
65597;SDS011;52267;51.984;20.956;2023-03-14T12:35:51;8.20;;;5.10;;
65597;SDS011;52267;51.984;20.956;2023-03-14T12:43:43;9.00;;;4.80;;
65597;SDS011;52267;51.984;20.956;2023-03-14T12:49:09;8.30;;;4.80;;
65597;SDS011;52267;51.984;20.956;2023-03-14T12:51:39;8.50;;;4.80;;
65597;SDS011;52267;51.984;20.956;2023-03-14T12:57:24;12.70;;;6.40;;
65597;SDS011;52267;51.984;20.956;2023-03-14T13:00:19;10.60;;;5.00;;
65597;SDS011;52267;51.984;20.956;2023-03-14T13:02:48;11.30;;;5.30;;
65597;SDS011;52267;51.984;20.956;2023-03-14T13:05:21;10.50;;;5.60;;
65597;SDS011;52267;51.984;20.956;2023-03-14T13:13:23;14.50;;;8.30;;
65597;SDS011;52267;51.984;20.956;2023-03-14T13:15:56;14.40;;;7.50;;
65597;SDS011;52267;51.984;20.956;2023-03-14T13:18:33;16.40;;;9.40;;
65597;SDS011;52267;51.984;20.956;2023-03-14T13:23:38;12.40;;;7.80;;
65597;SDS011;52267;51.984;20.956;2023-03-14T13:26:13;9.50;;;5.70;;
65597;SDS011;52267;51.984;20.956;2023-03-14T13:28:41;9.20;;;5.60;;
65597;SDS011;52267;51.984;20.956;2023-03-14T13:31:23;10.70;;;6.20;;
65597;SDS011;52267;51.984;20.956;2023-03-14T13:34:02;10.70;;;6.00;;
65597;SDS011;52267;51.984;20.956;2023-03-14T13:36:36;7.20;;;4.60;;
65597;SDS011;52267;51.984;20.956;2023-03-14T13:39:09;8.90;;;5.70;;
65597;SDS011;52267;51.984;20.956;2023-03-14T13:41:40;8.40;;;5.20;;
65597;SDS011;52267;51.984;20.956;2023-03-14T13:44:24;9.00;;;4.30;;
65597;SDS011;52267;51.984;20.956;2023-03-14T13:46:58;8.70;;;4.70;;
65597;SDS011;52267;51.984;20.956;2023-03-14T13:49:29;9.10;;;5.30;;
65597;SDS011;52267;51.984;20.956;2023-03-14T13:52:00;13.20;;;5.30;;
65597;SDS011;52267;51.984;20.956;2023-03-14T13:54:31;13.80;;;6.60;;
65597;SDS011;52267;51.984;20.956;2023-03-14T13:57:03;10.80;;;5.70;;
65597;SDS011;52267;51.984;20.956;2023-03-14T13:59:34;12.60;;;7.70;;
65597;SDS011;52267;51.984;20.956;2023-03-14T14:02:13;13.80;;;7.30;;
65597;SDS011;52267;51.984;20.956;2023-03-14T14:04:40;18.10;;;9.00;;
65597;SDS011;52267;51.984;20.956;2023-03-14T14:07:10;10.10;;;6.40;;
65597;SDS011;52267;51.984;20.956;2023-03-14T14:09:47;9.10;;;5.40;;
65597;SDS011;52267;51.984;20.956;2023-03-14T14:12:35;13.20;;;7.00;;
65597;SDS011;52267;51.984;20.956;2023-03-14T14:15:17;10.00;;;5.80;;
65597;SDS011;52267;51.984;20.956;2023-03-14T14:17:51;8.20;;;5.00;;
65597;SDS011;52267;51.984;20.956;2023-03-14T14:20:27;15.30;;;8.90;;
65597;SDS011;52267;51.984;20.956;2023-03-14T14:23:21;10.70;;;6.20;;
65597;SDS011;52267;51.984;20.956;2023-03-14T14:25:52;10.90;;;6.60;;
65597;SDS011;52267;51.984;20.956;2023-03-14T14:28:31;14.30;;;8.60;;
65597;SDS011;52267;51.984;20.956;2023-03-14T14:31:26;9.90;;;6.40;;
65597;SDS011;52267;51.984;20.956;2023-03-14T14:33:54;11.50;;;6.30;;
65597;SDS011;52267;51.984;20.956;2023-03-14T14:39:03;8.80;;;5.10;;
65597;SDS011;52267;51.984;20.956;2023-03-14T14:41:42;6.00;;;3.80;;
65597;SDS011;52267;51.984;20.956;2023-03-14T14:44:13;12.00;;;6.60;;
65597;SDS011;52267;51.984;20.956;2023-03-14T14:46:45;14.70;;;8.80;;
65597;SDS011;52267;51.984;20.956;2023-03-14T14:49:14;15.90;;;8.20;;
65597;SDS011;52267;51.984;20.956;2023-03-14T14:51:49;12.30;;;7.00;;
65597;SDS011;52267;51.984;20.956;2023-03-14T14:54:19;11.60;;;6.10;;
65597;SDS011;52267;51.984;20.956;2023-03-14T14:57:03;11.70;;;7.50;;
65597;SDS011;52267;51.984;20.956;2023-03-14T14:59:42;13.80;;;8.50;;
65597;SDS011;52267;51.984;20.956;2023-03-14T15:02:33;13.60;;;8.60;;
65597;SDS011;52267;51.984;20.956;2023-03-14T15:07:31;12.40;;;8.10;;
65597;SDS011;52267;51.984;20.956;2023-03-14T15:09:58;19.20;;;9.20;;
65597;SDS011;52267;51.984;20.956;2023-03-14T15:12:26;14.70;;;8.50;;
65597;SDS011;52267;51.984;20.956;2023-03-14T15:14:53;17.80;;;10.60;;
65597;SDS011;52267;51.984;20.956;2023-03-14T15:17:23;13.00;;;7.90;;
65597;SDS011;52267;51.984;20.956;2023-03-14T15:19:51;14.70;;;9.80;;
65597;SDS011;52267;51.984;20.956;2023-03-14T15:22:18;11.40;;;7.70;;
65597;SDS011;52267;51.984;20.956;2023-03-14T15:24:45;13.90;;;9.70;;
65597;SDS011;52267;51.984;20.956;2023-03-14T15:27:13;18.30;;;12.00;;
65597;SDS011;52267;51.984;20.956;2023-03-14T15:29:42;18.70;;;11.60;;
65597;SDS011;52267;51.984;20.956;2023-03-14T15:32:12;14.20;;;10.00;;
65597;SDS011;52267;51.984;20.956;2023-03-14T15:34:40;14.40;;;9.90;;
65597;SDS011;52267;51.984;20.956;2023-03-14T15:37:11;17.20;;;10.80;;
65597;SDS011;52267;51.984;20.956;2023-03-14T15:39:40;17.20;;;10.90;;
65597;SDS011;52267;51.984;20.956;2023-03-14T15:42:07;10.60;;;7.20;;
65597;SDS011;52267;51.984;20.956;2023-03-14T15:44:34;14.80;;;8.90;;